Terminal Aerodrome Forecast
Issued by NWS

Home | Current Version | Previous Version | Text Only | Print | Product List | Glossary On
Versions: 1 2 3 4 5 6 7 8 9 10 11 12 13 14
000
FTUS46 KSEW 170539
TAFPAE
TAF
KPAE 170539Z 1706/1806 08006KT P6SM SCT120 BKN200
     FM170900 12007KT P6SM SCT040 BKN120
     FM171300 14014G23KT P6SM -RA SCT020 BKN040 OVC070
     FM172000 16020G27KT P6SM VCSH SCT020 OVC040
     FM180400 18019G28KT 5SM -RA OVC020=

USA.gov is the U.S. government's official web portal to all federal, state and local government web resources and services.